sensor_id;sensor_type;location;lat;lon;timestamp;temperature;humidity
61807;DHT22;47726;52.766;6.606;2023-04-01T00:01:58;10.40;99.90
61807;DHT22;47726;52.766;6.606;2023-04-01T00:04:24;10.40;99.90
61807;DHT22;47726;52.766;6.606;2023-04-01T00:06:49;10.40;99.90
61807;DHT22;47726;52.766;6.606;2023-04-01T00:09:15;10.30;99.90
61807;DHT22;47726;52.766;6.606;2023-04-01T00:11:41;10.30;99.90
61807;DHT22;47726;52.766;6.606;2023-04-01T00:14:07;10.30;99.90
61807;DHT22;47726;52.766;6.606;2023-04-01T00:16:33;10.30;99.90
61807;DHT22;47726;52.766;6.606;2023-04-01T00:18:59;10.30;99.90
61807;DHT22;47726;52.766;6.606;2023-04-01T00:21:25;10.30;99.90
61807;DHT22;47726;52.766;6.606;2023-04-01T00:23:51;10.30;99.90
61807;DHT22;47726;52.766;6.606;2023-04-01T00:26:17;10.30;99.90
61807;DHT22;47726;52.766;6.606;2023-04-01T00:28:45;10.30;99.90
61807;DHT22;47726;52.766;6.606;2023-04-01T00:31:12;10.30;99.90
61807;DHT22;47726;52.766;6.606;2023-04-01T00:33:38;10.30;99.90
61807;DHT22;47726;52.766;6.606;2023-04-01T00:36:16;10.30;99.90
61807;DHT22;47726;52.766;6.606;2023-04-01T00:38:42;10.20;99.90
61807;DHT22;47726;52.766;6.606;2023-04-01T00:41:09;10.20;99.90
61807;DHT22;47726;52.766;6.606;2023-04-01T00:43:46;10.20;99.90
61807;DHT22;47726;52.766;6.606;2023-04-01T00:46:12;10.30;99.90
61807;DHT22;47726;52.766;6.606;2023-04-01T00:48:53;10.20;99.90
61807;DHT22;47726;52.766;6.606;2023-04-01T00:51:23;10.30;99.90
61807;DHT22;47726;52.766;6.606;2023-04-01T00:53:52;10.30;99.90
61807;DHT22;47726;52.766;6.606;2023-04-01T00:56:22;10.30;99.90
61807;DHT22;47726;52.766;6.606;2023-04-01T00:58:51;10.30;99.90
61807;DHT22;47726;52.766;6.606;2023-04-01T01:01:20;10.30;99.90
61807;DHT22;47726;52.766;6.606;2023-04-01T01:03:47;10.30;99.90
61807;DHT22;47726;52.766;6.606;2023-04-01T01:09:03;10.30;99.90
61807;DHT22;47726;52.766;6.606;2023-04-01T01:11:37;10.30;99.90
61807;DHT22;47726;52.766;6.606;2023-04-01T01:14:19;10.20;99.90
61807;DHT22;47726;52.766;6.606;2023-04-01T01:16:59;10.30;99.90
61807;DHT22;47726;52.766;6.606;2023-04-01T01:27:58;10.20;99.90
61807;DHT22;47726;52.766;6.606;2023-04-01T01:30:39;10.30;99.90
61807;DHT22;47726;52.766;6.606;2023-04-01T01:36:03;10.30;99.90
61807;DHT22;47726;52.766;6.606;2023-04-01T01:38:33;10.20;99.90
61807;DHT22;47726;52.766;6.606;2023-04-01T01:41:01;10.20;99.90
61807;DHT22;47726;52.766;6.606;2023-04-01T01:43:32;10.20;99.90
61807;DHT22;47726;52.766;6.606;2023-04-01T01:46:01;10.20;99.90
61807;DHT22;47726;52.766;6.606;2023-04-01T01:48:29;10.20;99.90
61807;DHT22;47726;52.766;6.606;2023-04-01T01:50:56;10.20;99.90
61807;DHT22;47726;52.766;6.606;2023-04-01T01:53:22;10.20;99.90
61807;DHT22;47726;52.766;6.606;2023-04-01T01:55:48;10.20;99.90
61807;DHT22;47726;52.766;6.606;2023-04-01T01:58:16;10.20;99.90
61807;DHT22;47726;52.766;6.606;2023-04-01T02:00:47;10.20;99.90
61807;DHT22;47726;52.766;6.606;2023-04-01T02:03:15;10.20;99.90
61807;DHT22;47726;52.766;6.606;2023-04-01T02:05:42;10.20;99.90
61807;DHT22;47726;52.766;6.606;2023-04-01T02:08:17;10.20;99.90
61807;DHT22;47726;52.766;6.606;2023-04-01T02:10:49;10.20;99.90
61807;DHT22;47726;52.766;6.606;2023-04-01T02:13:24;10.20;99.90
61807;DHT22;47726;52.766;6.606;2023-04-01T02:15:51;10.20;99.90
61807;DHT22;47726;52.766;6.606;2023-04-01T02:18:21;10.20;99.90
61807;DHT22;47726;52.766;6.606;2023-04-01T02:20:48;10.20;99.90
61807;DHT22;47726;52.766;6.606;2023-04-01T02:23:14;10.20;99.90
61807;DHT22;47726;52.766;6.606;2023-04-01T02:25:41;10.20;99.90
61807;DHT22;47726;52.766;6.606;2023-04-01T02:28:09;10.20;99.90
61807;DHT22;47726;52.766;6.606;2023-04-01T02:30:37;10.20;99.90
61807;DHT22;47726;52.766;6.606;2023-04-01T02:33:05;10.20;99.90
61807;DHT22;47726;52.766;6.606;2023-04-01T02:35:33;10.20;99.90
61807;DHT22;47726;52.766;6.606;2023-04-01T02:38:00;10.20;99.90
61807;DHT22;47726;52.766;6.606;2023-04-01T02:40:26;10.20;99.90
61807;DHT22;47726;52.766;6.606;2023-04-01T02:42:52;10.20;99.90
61807;DHT22;47726;52.766;6.606;2023-04-01T02:45:18;10.20;99.90
61807;DHT22;47726;52.766;6.606;2023-04-01T02:47:43;10.20;99.90
61807;DHT22;47726;52.766;6.606;2023-04-01T02:50:09;10.20;99.90
61807;DHT22;47726;52.766;6.606;2023-04-01T02:52:35;10.20;99.90
61807;DHT22;47726;52.766;6.606;2023-04-01T02:55:01;10.20;99.90
61807;DHT22;47726;52.766;6.606;2023-04-01T02:57:26;10.20;99.90
61807;DHT22;47726;52.766;6.606;2023-04-01T02:59:52;10.20;99.90
61807;DHT22;47726;52.766;6.606;2023-04-01T03:02:18;10.20;99.90
61807;DHT22;47726;52.766;6.606;2023-04-01T03:04:43;10.20;99.90
61807;DHT22;47726;52.766;6.606;2023-04-01T03:07:10;10.20;99.90
61807;DHT22;47726;52.766;6.606;2023-04-01T03:09:36;10.20;99.90
61807;DHT22;47726;52.766;6.606;2023-04-01T03:12:02;10.20;99.90
61807;DHT22;47726;52.766;6.606;2023-04-01T03:14:28;10.20;99.90
61807;DHT22;47726;52.766;6.606;2023-04-01T03:16:53;10.20;99.90
61807;DHT22;47726;52.766;6.606;2023-04-01T03:19:20;10.20;99.90
61807;DHT22;47726;52.766;6.606;2023-04-01T03:21:45;10.20;99.90
61807;DHT22;47726;52.766;6.606;2023-04-01T03:24:11;10.20;99.90
61807;DHT22;47726;52.766;6.606;2023-04-01T03:26:36;10.20;99.90
61807;DHT22;47726;52.766;6.606;2023-04-01T03:29:02;10.20;99.90
61807;DHT22;47726;52.766;6.606;2023-04-01T03:31:27;10.20;99.90
61807;DHT22;47726;52.766;6.606;2023-04-01T03:33:53;10.20;99.90
61807;DHT22;47726;52.766;6.606;2023-04-01T03:36:19;10.20;99.90
61807;DHT22;47726;52.766;6.606;2023-04-01T03:38:45;10.20;99.90
61807;DHT22;47726;52.766;6.606;2023-04-01T03:41:15;10.20;99.90
61807;DHT22;47726;52.766;6.606;2023-04-01T03:43:41;10.20;99.90
61807;DHT22;47726;52.766;6.606;2023-04-01T03:46:07;10.20;99.90
61807;DHT22;47726;52.766;6.606;2023-04-01T03:48:32;10.20;99.90
61807;DHT22;47726;52.766;6.606;2023-04-01T03:50:58;10.20;99.90
61807;DHT22;47726;52.766;6.606;2023-04-01T03:53:23;10.20;99.90
61807;DHT22;47726;52.766;6.606;2023-04-01T03:55:49;10.20;99.90
61807;DHT22;47726;52.766;6.606;2023-04-01T03:58:17;10.20;99.90
61807;DHT22;47726;52.766;6.606;2023-04-01T04:00:43;10.20;99.90
61807;DHT22;47726;52.766;6.606;2023-04-01T04:03:08;10.20;99.90
61807;DHT22;47726;52.766;6.606;2023-04-01T04:05:34;10.20;99.90
61807;DHT22;47726;52.766;6.606;2023-04-01T04:07:59;10.20;99.90
61807;DHT22;47726;52.766;6.606;2023-04-01T04:10:25;10.20;99.90
61807;DHT22;47726;52.766;6.606;2023-04-01T04:12:51;10.20;99.90
61807;DHT22;47726;52.766;6.606;2023-04-01T04:15:17;10.20;99.90
61807;DHT22;47726;52.766;6.606;2023-04-01T04:17:44;10.20;99.90
61807;DHT22;47726;52.766;6.606;2023-04-01T04:20:10;10.20;99.90
61807;DHT22;47726;52.766;6.606;2023-04-01T04:22:36;10.20;99.90
61807;DHT22;47726;52.766;6.606;2023-04-01T04:25:01;10.20;99.90
61807;DHT22;47726;52.766;6.606;2023-04-01T04:27:27;10.20;99.90
61807;DHT22;47726;52.766;6.606;2023-04-01T04:29:52;10.20;99.90
61807;DHT22;47726;52.766;6.606;2023-04-01T04:32:18;10.20;99.90
61807;DHT22;47726;52.766;6.606;2023-04-01T04:34:43;10.20;99.90
61807;DHT22;47726;52.766;6.606;2023-04-01T04:37:09;10.20;99.90
61807;DHT22;47726;52.766;6.606;2023-04-01T04:39:34;10.20;99.90
61807;DHT22;47726;52.766;6.606;2023-04-01T04:42:00;10.20;99.90
61807;DHT22;47726;52.766;6.606;2023-04-01T04:44:26;10.20;99.90
61807;DHT22;47726;52.766;6.606;2023-04-01T04:46:51;10.20;99.90
61807;DHT22;47726;52.766;6.606;2023-04-01T04:49:17;10.20;99.90
61807;DHT22;47726;52.766;6.606;2023-04-01T04:51:42;10.20;99.90
61807;DHT22;47726;52.766;6.606;2023-04-01T04:54:08;10.20;99.90
61807;DHT22;47726;52.766;6.606;2023-04-01T04:56:34;10.20;99.90
61807;DHT22;47726;52.766;6.606;2023-04-01T04:59:01;10.20;99.90
61807;DHT22;47726;52.766;6.606;2023-04-01T05:01:27;10.20;99.90
61807;DHT22;47726;52.766;6.606;2023-04-01T05:03:53;10.20;99.90
61807;DHT22;47726;52.766;6.606;2023-04-01T05:06:19;10.20;99.90
61807;DHT22;47726;52.766;6.606;2023-04-01T05:08:45;10.20;99.90
61807;DHT22;47726;52.766;6.606;2023-04-01T05:11:13;10.20;99.90
61807;DHT22;47726;52.766;6.606;2023-04-01T05:13:40;10.20;99.90
61807;DHT22;47726;52.766;6.606;2023-04-01T05:16:09;10.20;99.90
61807;DHT22;47726;52.766;6.606;2023-04-01T05:18:34;10.20;99.90
61807;DHT22;47726;52.766;6.606;2023-04-01T05:21:00;10.20;99.90
61807;DHT22;47726;52.766;6.606;2023-04-01T05:23:25;10.20;99.90
61807;DHT22;47726;52.766;6.606;2023-04-01T05:25:51;10.20;99.90
61807;DHT22;47726;52.766;6.606;2023-04-01T05:28:19;10.20;99.90
61807;DHT22;47726;52.766;6.606;2023-04-01T05:30:44;10.20;99.90
61807;DHT22;47726;52.766;6.606;2023-04-01T05:33:11;10.10;99.90
61807;DHT22;47726;52.766;6.606;2023-04-01T05:35:37;10.20;99.90
61807;DHT22;47726;52.766;6.606;2023-04-01T05:38:06;10.10;99.90
61807;DHT22;47726;52.766;6.606;2023-04-01T05:40:34;10.10;99.90
61807;DHT22;47726;52.766;6.606;2023-04-01T05:43:00;10.10;99.90
61807;DHT22;47726;52.766;6.606;2023-04-01T05:45:26;10.10;99.90
61807;DHT22;47726;52.766;6.606;2023-04-01T05:47:52;10.20;99.90
61807;DHT22;47726;52.766;6.606;2023-04-01T05:50:18;10.20;99.90
61807;DHT22;47726;52.766;6.606;2023-04-01T05:52:44;10.20;99.90
61807;DHT22;47726;52.766;6.606;2023-04-01T05:55:10;10.20;99.90
61807;DHT22;47726;52.766;6.606;2023-04-01T05:57:36;10.20;99.90
61807;DHT22;47726;52.766;6.606;2023-04-01T06:00:03;10.20;99.90
61807;DHT22;47726;52.766;6.606;2023-04-01T06:02:29;10.20;99.90
61807;DHT22;47726;52.766;6.606;2023-04-01T06:05:03;10.20;99.90
61807;DHT22;47726;52.766;6.606;2023-04-01T06:07:36;10.20;99.90
61807;DHT22;47726;52.766;6.606;2023-04-01T06:10:09;10.20;99.90
61807;DHT22;47726;52.766;6.606;2023-04-01T06:21:02;10.20;99.90
61807;DHT22;47726;52.766;6.606;2023-04-01T06:40:25;10.30;99.90
61807;DHT22;47726;52.766;6.606;2023-04-01T06:54:11;10.30;99.90
61807;DHT22;47726;52.766;6.606;2023-04-01T06:56:41;10.30;99.90
61807;DHT22;47726;52.766;6.606;2023-04-01T06:59:20;10.40;99.90
61807;DHT22;47726;52.766;6.606;2023-04-01T07:01:54;10.40;99.90
61807;DHT22;47726;52.766;6.606;2023-04-01T07:04:25;10.40;99.90
61807;DHT22;47726;52.766;6.606;2023-04-01T07:06:57;10.40;99.90
61807;DHT22;47726;52.766;6.606;2023-04-01T07:09:45;10.40;99.90
61807;DHT22;47726;52.766;6.606;2023-04-01T07:12:42;10.40;99.90
61807;DHT22;47726;52.766;6.606;2023-04-01T07:15:30;10.40;99.90
61807;DHT22;47726;52.766;6.606;2023-04-01T07:18:17;10.40;99.90
61807;DHT22;47726;52.766;6.606;2023-04-01T07:20:44;10.50;99.90
61807;DHT22;47726;52.766;6.606;2023-04-01T07:23:24;10.50;99.90
61807;DHT22;47726;52.766;6.606;2023-04-01T07:26:00;10.50;99.90
61807;DHT22;47726;52.766;6.606;2023-04-01T07:28:30;10.50;99.90
61807;DHT22;47726;52.766;6.606;2023-04-01T07:34:01;10.50;99.90
61807;DHT22;47726;52.766;6.606;2023-04-01T07:36:58;10.60;99.90
61807;DHT22;47726;52.766;6.606;2023-04-01T07:48:17;10.60;99.90
61807;DHT22;47726;52.766;6.606;2023-04-01T07:54:18;10.70;99.90
61807;DHT22;47726;52.766;6.606;2023-04-01T07:57:09;10.70;99.90
61807;DHT22;47726;52.766;6.606;2023-04-01T08:02:29;10.70;99.90
61807;DHT22;47726;52.766;6.606;2023-04-01T08:05:17;10.70;99.90
61807;DHT22;47726;52.766;6.606;2023-04-01T08:11:13;10.80;99.90
61807;DHT22;47726;52.766;6.606;2023-04-01T08:13:50;10.80;99.90
61807;DHT22;47726;52.766;6.606;2023-04-01T08:16:49;10.80;99.90
61807;DHT22;47726;52.766;6.606;2023-04-01T08:21:47;10.80;99.90
61807;DHT22;47726;52.766;6.606;2023-04-01T08:26:57;10.80;99.90
61807;DHT22;47726;52.766;6.606;2023-04-01T08:29:38;10.80;99.90
61807;DHT22;47726;52.766;6.606;2023-04-01T08:34:36;10.80;99.90
61807;DHT22;47726;52.766;6.606;2023-04-01T08:37:12;10.90;99.90
61807;DHT22;47726;52.766;6.606;2023-04-01T08:39:50;10.90;99.90
61807;DHT22;47726;52.766;6.606;2023-04-01T08:42:41;10.90;99.90
61807;DHT22;47726;52.766;6.606;2023-04-01T08:49:08;10.90;99.90
61807;DHT22;47726;52.766;6.606;2023-04-01T08:51:53;11.00;99.90
61807;DHT22;47726;52.766;6.606;2023-04-01T08:54:46;11.00;99.90
61807;DHT22;47726;52.766;6.606;2023-04-01T09:02:50;11.00;99.90
61807;DHT22;47726;52.766;6.606;2023-04-01T09:05:47;11.00;99.90
61807;DHT22;47726;52.766;6.606;2023-04-01T09:14:03;11.10;99.90
61807;DHT22;47726;52.766;6.606;2023-04-01T09:20:58;11.20;99.90
61807;DHT22;47726;52.766;6.606;2023-04-01T09:25:45;11.30;99.90
61807;DHT22;47726;52.766;6.606;2023-04-01T09:28:28;11.30;99.90
61807;DHT22;47726;52.766;6.606;2023-04-01T09:37:33;11.50;99.90
61807;DHT22;47726;52.766;6.606;2023-04-01T09:40:23;11.50;99.90
61807;DHT22;47726;52.766;6.606;2023-04-01T09:48:12;11.60;99.90
61807;DHT22;47726;52.766;6.606;2023-04-01T09:51:08;11.60;99.90
61807;DHT22;47726;52.766;6.606;2023-04-01T10:01:57;11.70;99.90
61807;DHT22;47726;52.766;6.606;2023-04-01T10:11:17;11.80;99.90
61807;DHT22;47726;52.766;6.606;2023-04-01T10:14:10;11.80;99.90
61807;DHT22;47726;52.766;6.606;2023-04-01T10:27:59;11.90;99.90
61807;DHT22;47726;52.766;6.606;2023-04-01T10:30:53;11.90;99.90
61807;DHT22;47726;52.766;6.606;2023-04-01T10:33:35;11.90;99.90
61807;DHT22;47726;52.766;6.606;2023-04-01T10:36:43;11.90;99.90
61807;DHT22;47726;52.766;6.606;2023-04-01T10:39:34;11.90;99.90
61807;DHT22;47726;52.766;6.606;2023-04-01T10:48:09;11.90;99.90
61807;DHT22;47726;52.766;6.606;2023-04-01T10:53:58;12.00;99.90
61807;DHT22;47726;52.766;6.606;2023-04-01T10:56:32;12.00;99.90
61807;DHT22;47726;52.766;6.606;2023-04-01T11:04:44;12.00;99.90
61807;DHT22;47726;52.766;6.606;2023-04-01T11:16:03;12.10;99.90
61807;DHT22;47726;52.766;6.606;2023-04-01T11:25:44;12.10;99.90
61807;DHT22;47726;52.766;6.606;2023-04-01T11:28:04;12.10;99.90
61807;DHT22;47726;52.766;6.606;2023-04-01T11:33:44;12.10;99.90
61807;DHT22;47726;52.766;6.606;2023-04-01T11:36:52;12.00;99.90
61807;DHT22;47726;52.766;6.606;2023-04-01T11:39:48;11.90;99.90
61807;DHT22;47726;52.766;6.606;2023-04-01T11:42:44;11.80;99.90
61807;DHT22;47726;52.766;6.606;2023-04-01T11:45:20;11.80;99.90
61807;DHT22;47726;52.766;6.606;2023-04-01T11:47:58;11.80;99.90
61807;DHT22;47726;52.766;6.606;2023-04-01T11:58:40;11.70;99.90
61807;DHT22;47726;52.766;6.606;2023-04-01T12:01:34;11.60;99.90
61807;DHT22;47726;52.766;6.606;2023-04-01T12:08:01;11.60;99.90
61807;DHT22;47726;52.766;6.606;2023-04-01T12:10:25;11.60;99.90
61807;DHT22;47726;52.766;6.606;2023-04-01T12:18:24;11.50;99.90
61807;DHT22;47726;52.766;6.606;2023-04-01T12:26:47;11.50;99.90
61807;DHT22;47726;52.766;6.606;2023-04-01T12:32:40;11.40;99.90
61807;DHT22;47726;52.766;6.606;2023-04-01T12:46:46;11.30;99.90
61807;DHT22;47726;52.766;6.606;2023-04-01T12:52:09;11.30;99.90
61807;DHT22;47726;52.766;6.606;2023-04-01T13:03:53;11.30;99.90
61807;DHT22;47726;52.766;6.606;2023-04-01T13:06:27;11.20;99.90
61807;DHT22;47726;52.766;6.606;2023-04-01T13:17:36;11.30;99.90
61807;DHT22;47726;52.766;6.606;2023-04-01T13:20:15;11.20;99.90
61807;DHT22;47726;52.766;6.606;2023-04-01T13:25:39;11.20;99.90
61807;DHT22;47726;52.766;6.606;2023-04-01T13:28:26;11.30;99.90
61807;DHT22;47726;52.766;6.606;2023-04-01T13:33:36;11.30;99.90
61807;DHT22;47726;52.766;6.606;2023-04-01T13:36:13;11.30;99.90
61807;DHT22;47726;52.766;6.606;2023-04-01T13:41:40;11.20;99.90
61807;DHT22;47726;52.766;6.606;2023-04-01T13:52:51;11.10;99.90
61807;DHT22;47726;52.766;6.606;2023-04-01T13:55:49;11.10;99.90
61807;DHT22;47726;52.766;6.606;2023-04-01T13:58:58;11.10;99.90
61807;DHT22;47726;52.766;6.606;2023-04-01T14:01:47;11.00;99.90
61807;DHT22;47726;52.766;6.606;2023-04-01T14:05:17;11.10;99.90
61807;DHT22;47726;52.766;6.606;2023-04-01T14:07:55;11.00;99.90
61807;DHT22;47726;52.766;6.606;2023-04-01T14:10:19;11.00;99.90
61807;DHT22;47726;52.766;6.606;2023-04-01T14:16:21;11.00;99.90
61807;DHT22;47726;52.766;6.606;2023-04-01T14:27:17;10.80;99.90
61807;DHT22;47726;52.766;6.606;2023-04-01T14:33:21;10.80;99.90
61807;DHT22;47726;52.766;6.606;2023-04-01T14:38:57;10.70;99.90
61807;DHT22;47726;52.766;6.606;2023-04-01T14:47:13;10.70;99.90
61807;DHT22;47726;52.766;6.606;2023-04-01T14:49:48;10.70;99.90
61807;DHT22;47726;52.766;6.606;2023-04-01T14:52:30;10.70;99.90
61807;DHT22;47726;52.766;6.606;2023-04-01T14:54:57;10.70;99.90
61807;DHT22;47726;52.766;6.606;2023-04-01T14:57:31;10.70;99.90
61807;DHT22;47726;52.766;6.606;2023-04-01T15:02:59;10.60;99.90
61807;DHT22;47726;52.766;6.606;2023-04-01T15:08:29;10.60;99.90
61807;DHT22;47726;52.766;6.606;2023-04-01T15:11:21;10.50;99.90
61807;DHT22;47726;52.766;6.606;2023-04-01T15:27:49;10.50;99.90
61807;DHT22;47726;52.766;6.606;2023-04-01T15:30:26;10.50;99.90
61807;DHT22;47726;52.766;6.606;2023-04-01T15:43:53;10.50;99.90
61807;DHT22;47726;52.766;6.606;2023-04-01T15:46:47;10.50;99.90
61807;DHT22;47726;52.766;6.606;2023-04-01T15:49:26;10.50;99.90
61807;DHT22;47726;52.766;6.606;2023-04-01T15:52:06;10.50;99.90
61807;DHT22;47726;52.766;6.606;2023-04-01T15:57:52;10.50;99.90
61807;DHT22;47726;52.766;6.606;2023-04-01T16:00:28;10.40;99.90
61807;DHT22;47726;52.766;6.606;2023-04-01T16:03:27;10.40;99.90
61807;DHT22;47726;52.766;6.606;2023-04-01T16:17:31;10.30;99.90
61807;DHT22;47726;52.766;6.606;2023-04-01T16:22:39;10.30;99.90
61807;DHT22;47726;52.766;6.606;2023-04-01T16:25:20;10.20;99.90
61807;DHT22;47726;52.766;6.606;2023-04-01T16:30:38;10.20;99.90
61807;DHT22;47726;52.766;6.606;2023-04-01T16:38:39;10.10;99.90
61807;DHT22;47726;52.766;6.606;2023-04-01T16:41:24;10.10;99.90
61807;DHT22;47726;52.766;6.606;2023-04-01T16:44:24;10.10;99.90
61807;DHT22;47726;52.766;6.606;2023-04-01T16:46:56;10.00;99.90
61807;DHT22;47726;52.766;6.606;2023-04-01T16:49:42;10.00;99.90
61807;DHT22;47726;52.766;6.606;2023-04-01T16:55:02;10.00;99.90
61807;DHT22;47726;52.766;6.606;2023-04-01T16:57:43;9.90;99.90
61807;DHT22;47726;52.766;6.606;2023-04-01T17:00:37;9.90;99.90
61807;DHT22;47726;52.766;6.606;2023-04-01T17:11:19;9.80;99.90
61807;DHT22;47726;52.766;6.606;2023-04-01T17:14:22;9.80;99.90
61807;DHT22;47726;52.766;6.606;2023-04-01T17:17:20;9.80;99.90
61807;DHT22;47726;52.766;6.606;2023-04-01T17:20:12;9.80;99.90
61807;DHT22;47726;52.766;6.606;2023-04-01T17:33:37;9.60;99.90
61807;DHT22;47726;52.766;6.606;2023-04-01T17:42:05;9.50;99.90
61807;DHT22;47726;52.766;6.606;2023-04-01T17:44:38;9.50;99.90
61807;DHT22;47726;52.766;6.606;2023-04-01T17:47:19;9.40;99.90
61807;DHT22;47726;52.766;6.606;2023-04-01T17:52:42;9.40;99.90
61807;DHT22;47726;52.766;6.606;2023-04-01T17:58:11;9.40;99.90
61807;DHT22;47726;52.766;6.606;2023-04-01T18:06:16;9.30;99.90
61807;DHT22;47726;52.766;6.606;2023-04-01T18:09:05;9.20;99.90
61807;DHT22;47726;52.766;6.606;2023-04-01T18:17:24;9.10;99.90
61807;DHT22;47726;52.766;6.606;2023-04-01T18:22:53;9.10;99.90
61807;DHT22;47726;52.766;6.606;2023-04-01T18:25:46;9.10;99.90
61807;DHT22;47726;52.766;6.606;2023-04-01T18:31:36;9.10;99.90
61807;DHT22;47726;52.766;6.606;2023-04-01T18:36:55;9.00;99.90
61807;DHT22;47726;52.766;6.606;2023-04-01T18:39:22;8.90;99.90
61807;DHT22;47726;52.766;6.606;2023-04-01T18:47:44;8.90;99.90
61807;DHT22;47726;52.766;6.606;2023-04-01T18:53:15;8.80;99.90
61807;DHT22;47726;52.766;6.606;2023-04-01T18:55:56;8.80;99.90
61807;DHT22;47726;52.766;6.606;2023-04-01T19:01:26;8.80;99.90
61807;DHT22;47726;52.766;6.606;2023-04-01T19:06:57;8.70;99.90
61807;DHT22;47726;52.766;6.606;2023-04-01T19:23:31;8.60;99.90
61807;DHT22;47726;52.766;6.606;2023-04-01T19:26:40;8.60;99.90
61807;DHT22;47726;52.766;6.606;2023-04-01T19:29:17;8.50;99.90
61807;DHT22;47726;52.766;6.606;2023-04-01T19:35:06;8.50;99.90
61807;DHT22;47726;52.766;6.606;2023-04-01T19:37:43;8.50;99.90
61807;DHT22;47726;52.766;6.606;2023-04-01T19:45:39;8.40;99.90
61807;DHT22;47726;52.766;6.606;2023-04-01T19:50:59;8.40;99.90
61807;DHT22;47726;52.766;6.606;2023-04-01T19:56:23;8.30;99.90
61807;DHT22;47726;52.766;6.606;2023-04-01T19:59:02;8.30;99.90
61807;DHT22;47726;52.766;6.606;2023-04-01T20:01:45;8.30;99.90
61807;DHT22;47726;52.766;6.606;2023-04-01T20:04:34;8.30;99.90
61807;DHT22;47726;52.766;6.606;2023-04-01T20:07:09;8.20;99.90
61807;DHT22;47726;52.766;6.606;2023-04-01T20:12:52;8.20;99.90
61807;DHT22;47726;52.766;6.606;2023-04-01T20:15:32;8.20;99.90
61807;DHT22;47726;52.766;6.606;2023-04-01T20:18:01;8.20;99.90
61807;DHT22;47726;52.766;6.606;2023-04-01T20:20:29;8.10;99.90
61807;DHT22;47726;52.766;6.606;2023-04-01T20:25:55;8.20;99.90
61807;DHT22;47726;52.766;6.606;2023-04-01T20:28:30;8.10;99.90
61807;DHT22;47726;52.766;6.606;2023-04-01T20:31:06;8.10;99.90
61807;DHT22;47726;52.766;6.606;2023-04-01T20:44:29;8.00;99.90
61807;DHT22;47726;52.766;6.606;2023-04-01T20:50:11;8.00;99.90
61807;DHT22;47726;52.766;6.606;2023-04-01T20:52:55;8.00;99.90
61807;DHT22;47726;52.766;6.606;2023-04-01T20:55:47;8.00;99.90
61807;DHT22;47726;52.766;6.606;2023-04-01T20:58:28;8.00;99.90
61807;DHT22;47726;52.766;6.606;2023-04-01T21:03:50;7.90;99.90
61807;DHT22;47726;52.766;6.606;2023-04-01T21:06:48;7.90;99.90
61807;DHT22;47726;52.766;6.606;2023-04-01T21:09:29;7.90;99.90
61807;DHT22;47726;52.766;6.606;2023-04-01T21:14:54;7.80;99.90
61807;DHT22;47726;52.766;6.606;2023-04-01T21:20:44;7.70;99.90
61807;DHT22;47726;52.766;6.606;2023-04-01T21:25:54;7.70;99.90
61807;DHT22;47726;52.766;6.606;2023-04-01T21:45:15;7.60;99.90
61807;DHT22;47726;52.766;6.606;2023-04-01T21:59:35;7.60;99.90
61807;DHT22;47726;52.766;6.606;2023-04-01T22:02:35;7.50;99.90
61807;DHT22;47726;52.766;6.606;2023-04-01T22:07:59;7.50;99.90
61807;DHT22;47726;52.766;6.606;2023-04-01T22:10:38;7.50;99.90
61807;DHT22;47726;52.766;6.606;2023-04-01T22:13:20;7.50;99.90
61807;DHT22;47726;52.766;6.606;2023-04-01T22:15:58;7.50;99.90
61807;DHT22;47726;52.766;6.606;2023-04-01T22:18:46;7.50;99.90
61807;DHT22;47726;52.766;6.606;2023-04-01T22:24:24;7.40;99.90
61807;DHT22;47726;52.766;6.606;2023-04-01T22:32:58;7.40;99.90
61807;DHT22;47726;52.766;6.606;2023-04-01T22:35:48;7.40;99.90
61807;DHT22;47726;52.766;6.606;2023-04-01T22:41:05;7.40;99.90
61807;DHT22;47726;52.766;6.606;2023-04-01T22:43:39;7.40;99.90
61807;DHT22;47726;52.766;6.606;2023-04-01T22:49:16;7.30;99.90
61807;DHT22;47726;52.766;6.606;2023-04-01T22:51:57;7.30;99.90
61807;DHT22;47726;52.766;6.606;2023-04-01T22:54:34;7.30;99.90
61807;DHT22;47726;52.766;6.606;2023-04-01T22:57:04;7.20;99.90
61807;DHT22;47726;52.766;6.606;2023-04-01T23:00:01;7.30;99.90
61807;DHT22;47726;52.766;6.606;2023-04-01T23:02:33;7.20;99.90
61807;DHT22;47726;52.766;6.606;2023-04-01T23:05:03;7.20;99.90
61807;DHT22;47726;52.766;6.606;2023-04-01T23:07:36;7.20;99.90
61807;DHT22;47726;52.766;6.606;2023-04-01T23:10:26;7.20;99.90
61807;DHT22;47726;52.766;6.606;2023-04-01T23:12:56;7.20;99.90
61807;DHT22;47726;52.766;6.606;2023-04-01T23:15:23;7.20;99.90
61807;DHT22;47726;52.766;6.606;2023-04-01T23:26:52;7.10;99.90
61807;DHT22;47726;52.766;6.606;2023-04-01T23:29:21;7.10;99.90
61807;DHT22;47726;52.766;6.606;2023-04-01T23:31:56;7.00;99.90
61807;DHT22;47726;52.766;6.606;2023-04-01T23:34:30;7.00;99.90
61807;DHT22;47726;52.766;6.606;2023-04-01T23:37:05;7.00;99.90
61807;DHT22;47726;52.766;6.606;2023-04-01T23:39:40;7.00;99.90
61807;DHT22;47726;52.766;6.606;2023-04-01T23:42:30;7.00;99.90
61807;DHT22;47726;52.766;6.606;2023-04-01T23:45:03;6.90;99.90
61807;DHT22;47726;52.766;6.606;2023-04-01T23:47:32;6.90;99.90
61807;DHT22;47726;52.766;6.606;2023-04-01T23:50:01;6.90;99.90
61807;DHT22;47726;52.766;6.606;2023-04-01T23:52:31;6.80;99.90
61807;DHT22;47726;52.766;6.606;2023-04-01T23:55:16;6.80;99.90
